KDNV/DNV METAR and TAF weather

Enter ICAO airport designator
Station Type Date Time Source
KDNV METAR 2019/06/26 21:55 UTC NOAA

KDNV 262155Z AUTO 22008KT 10SM SCT055 32/18 A3004 RMK AO2 T03150183


Station Type Date Time Source
KDNV Decoded METAR 2019/06/26 21:55 UTC NOAA

Danville, Vermilion County Airport, IL, United States (KDNV) 40-11-58N 087-35-44W
Jun 26, 2019 - 05:55 PM EDT / 2019.06.26 2155 UTC
Wind: from the SW (220 degrees) at 9 MPH (8 KT):0
Visibility: 10 mile(s):0
Sky conditions: partly cloudy
Temperature: 88.7 F (31.5 C)
Dew Point: 64.9 F (18.3 C)
Relative Humidity: 45%
Pressure (altimeter): 30.04 in. Hg (1017 hPa)
ob: KDNV 262155Z AUTO 22008KT 10SM SCT055 32/18 A3004 RMK AO2 T03150183
cycle: 22

Station Type Date Time Source
KDNV TAF UTC NOAA

Error!

Example: see airport list